Aviation Digital Data Service (ADDS)

Output produced by METARs form (0923 UTC 07 December 2022)
found at http://www.aviationweather.gov/metar/data/
 
KVKS 070855Z AUTO 19005KT 10SM SCT012 SCT024 21/21 A3015 RMK A01
KVKS 070835Z AUTO 18006KT 10SM CLR 21/21 A3015 RMK A01
KVKS 070815Z AUTO 18006KT 10SM CLR 21/21 A3014 RMK A01
KVKS 070755Z AUTO 18005KT 10SM CLR 21/21 A3014 RMK A01
KVKS 070735Z AUTO 18005KT 10SM FEW014 FEW027 22/22 A3014 RMK A01
KVKS 070715Z AUTO 19005KT 10SM CLR 22/22 A3013 RMK A01
KVKS 070655Z AUTO 19007KT 10SM FEW048 22/22 A3012 RMK A01
KVKS 070635Z AUTO 19006KT 10SM BKN046 22/22 A3012 RMK A01
KVKS 070615Z AUTO 19006KT 10SM BKN043 22/22 A3011 RMK A01
KVKS 070555Z AUTO 19007KT 10SM OVC044 22/21 A3011 RMK A01
KVKS 070535Z AUTO 19008KT 10SM SCT045 22/21 A3011 RMK A01
KVKS 070515Z AUTO 19008KT 10SM BKN044 23/21 A3010 RMK A01
KVKS 070455Z AUTO 19006KT 10SM BKN046 BKN050 23/21 A3010 RMK A01
KVKS 070435Z AUTO 19007KT 10SM OVC050 23/20 A3010 RMK A01
KVKS 070415Z AUTO 19007G13KT 10SM SCT048 BKN055 23/20 A3010 RMK A01
KVKS 070355Z AUTO 18007KT 10SM FEW050 23/20 A3009 RMK A01
KVKS 070335Z AUTO 19008KT 10SM SCT055 23/20 A3008 RMK A01
KVKS 070315Z AUTO 19008KT 10SM OVC055 23/20 A3007 RMK A01
KVKS 070255Z AUTO 19006KT 10SM OVC055 23/20 A3007 RMK A01
KVKS 070235Z AUTO 18006KT 10SM BKN055 23/20 A3007 RMK A01
KVKS 070215Z AUTO 17006KT 10SM FEW035 FEW044 BKN055 23/19 A3006 RMK A01
KVKS 070155Z AUTO 17006KT 10SM SCT034 SCT044 OVC055 23/19 A3005 RMK A01
KVKS 070135Z AUTO 16005KT 10SM FEW039 OVC055 24/19 A3004 RMK A01
KVKS 070115Z AUTO 17006KT 10SM FEW040 OVC060 24/19 A3004 RMK A01
KVKS 070055Z AUTO 15004KT 10SM OVC060 24/18 A3004 RMK A01
KVKS 070035Z AUTO 16004KT 10SM OVC060 24/18 A3004 RMK A01
KVKS 070015Z AUTO 15004KT 10SM OVC060 24/18 A3003 RMK A01
KVKS 062355Z AUTO 16004KT 10SM OVC060 25/18 A3003 RMK A01
KVKS 062335Z AUTO 17003KT 10SM FEW049 OVC060 24/18 A3003 RMK A01
KVKS 062315Z AUTO 00000KT 10SM FEW047 BKN055 24/18 A3003 RMK A01
KVKS 062255Z AUTO 20004KT 10SM FEW047 OVC055 25/18 A3002 RMK A01
KVKS 062235Z AUTO 22007KT 10SM SCT055 26/17 A3001 RMK A01
KVKS 062215Z AUTO 21007KT 10SM FEW055 26/17 A3000 RMK A01
KVKS 062155Z AUTO 20008KT 10SM CLR 26/18 A3000 RMK A01
KVKS 062135Z AUTO 21008KT 10SM CLR 26/18 A3000 RMK A01
KVKS 062115Z AUTO 23008G14KT 10SM FEW060 26/18 A3000 RMK A01
KVKS 062055Z AUTO 21011KT 10SM FEW055 26/18 A3000 RMK A01
KVKS 062035Z AUTO 23011G16KT 6SM HZ CLR 26/18 A3000 RMK A01
KVKS 062015Z AUTO 21011G20KT 180V240 10SM FEW050 26/18 A3000 RMK A01
KVKS 061955Z AUTO 24012G19KT 10SM CLR 27/19 A2999 RMK A01
KVKS 061935Z AUTO 21011G17KT 10SM CLR 26/19 A3000 RMK A01
KVKS 061915Z AUTO 22015G21KT 10SM FEW050 26/19 A3000 RMK A01
KVKS 061855Z AUTO 22010G20KT 10SM CLR 26/19 A3001 RMK A01
KVKS 061835Z AUTO 21016KT 10SM FEW050 26/19 A3001 RMK A01
KVKS 061815Z AUTO 24015G21KT 10SM FEW050 27/20 A3001 RMK A01
KVKS 061755Z AUTO 21013G20KT 10SM CLR 26/20 A3002 RMK A01
KVKS 061735Z AUTO 22015KT 10SM FEW029 FEW036 SCT042 26/20 A3002 RMK A01
KVKS 061715Z AUTO 22011G19KT 10SM SCT028 BKN035 OVC055 25/20 A3003 RMK A01
KVKS 061655Z AUTO 21013G21KT 10SM SCT029 BKN042 OVC047 25/20 A3004 RMK A01
KVKS 061635Z AUTO 20018G25KT 10SM SCT036 BKN044 25/21 A3003 RMK A01
KVKS 061615Z AUTO 22010G16KT 10SM FEW022 SCT031 BKN036 24/21 A3004 RMK A01
KVKS 061555Z AUTO 20011G20KT 10SM BKN022 BKN027 OVC033 24/21 A3004 RMK A01
KVKS 061535Z AUTO 21011G21KT 10SM BKN019 BKN023 OVC043 24/22 A3004 RMK A01
KVKS 061515Z AUTO 20010G20KT 10SM BKN019 OVC027 23/22 A3004 RMK A01
KVKS 061455Z AUTO 19009G15KT 10SM BKN017 OVC023 23/23 A3003 RMK A01
KVKS 061435Z AUTO 20008G16KT 10SM FEW014 SCT018 BKN027 23/23 A3002 RMK A01
KVKS 061415Z AUTO 20010KT 10SM FEW025 BKN050 23/23 A3002 RMK A01
KVKS 061355Z AUTO 18009KT 10SM FEW022 SCT027 BKN049 22/22 A3001 RMK A01
KVKS 061335Z AUTO 16008KT 10SM FEW020 SCT026 BKN049 22/22 A3001 RMK A01
KVKS 061315Z AUTO 16005KT 10SM BKN050 21/21 A3001 RMK A01
KVKS 061255Z AUTO 17005KT 10SM FEW023 SCT038 OVC049 21/21 A3000 RMK A01
KVKS 061235Z AUTO 18006KT 10SM FEW022 SCT028 BKN039 21/21 A3000 RMK A01
KVKS 061215Z AUTO 20006KT 10SM FEW016 BKN021 OVC050 21/21 A2999 RMK A01
KVKS 061155Z AUTO 19005KT 10SM SCT015 BKN022 OVC047 21/21 A2999 RMK A01
KVKS 061135Z AUTO VRB04KT 10SM BKN015 OVC022 21/21 A2998 RMK A01
KVKS 061115Z AUTO 18004KT 9SM BKN017 OVC022 22/22 A2997 RMK A01
KVKS 061055Z AUTO 19005KT 9SM OVC016 22/22 A2997 RMK A01
KVKS 061035Z AUTO 20005KT 10SM OVC017 22/22 A2996 RMK A01
KVKS 061015Z AUTO 17006KT 10SM BKN018 OVC024 22/22 A2996 RMK A01
KVKS 060955Z AUTO 18007KT 160V220 10SM OVC019 22/22 A2996 RMK A01
KVKS 060935Z AUTO 20006KT 10SM BKN018 OVC023 22/22 A2996 RMK A01
KVKS 060915Z AUTO 19008KT 10SM BKN019 OVC023 22/22 A2996 RMK A01
KVKS 060855Z AUTO 17006KT 10SM OVC018 22/22 A2995 RMK A01
KVKS 060835Z AUTO 19006KT 10SM OVC018 22/22 A2996 RMK A01
KVKS 060815Z AUTO 19009KT 10SM OVC018 22/22 A2995 RMK A01
KVKS 060755Z AUTO 17008KT 10SM OVC019 22/22 A2995 RMK A01
KVKS 060735Z AUTO 17009KT 10SM OVC019 22/22 A2994 RMK A01
KVKS 060655Z AUTO 18008KT 10SM BKN019 OVC039 22/22 A2994 RMK A01
KVKS 060635Z AUTO 17010KT 10SM BKN018 21/21 A2993 RMK A01
KVKS 060615Z AUTO 17010KT 10SM FEW018 FEW044 21/21 A2993 RMK A01
KVKS 060555Z AUTO 17007G12KT 10SM CLR 21/21 A2994 RMK A01
KVKS 060535Z AUTO 17007KT 10SM CLR 21/21 A2993 RMK A01
KVKS 060515Z AUTO 18008KT 10SM FEW019 FEW028 21/21 A2994 RMK A01
KVKS 060455Z AUTO 19007G12KT 10SM FEW027 21/21 A2993 RMK A01
KVKS 060435Z AUTO 18010KT 10SM CLR 21/21 A2993 RMK A01
KVKS 060415Z AUTO 18009KT 10SM FEW034 FEW043 21/21 A2993 RMK A01
KVKS 060355Z AUTO 17008KT 10SM FEW023 FEW036 21/21 A2992 RMK A01
KVKS 060335Z AUTO 17008KT 10SM BKN023 BKN033 BKN060 21/21 A2992 RMK A01
KVKS 060315Z AUTO 16007KT 10SM FEW033 SCT060 21/21 A2992 RMK A01
KVKS 060255Z AUTO 17007KT 10SM SCT060 22/22 A2992 RMK A01
KVKS 060235Z AUTO 16006G12KT 10SM BKN060 22/22 A2991 RMK A01
KVKS 060215Z AUTO 17009KT 10SM BKN065 22/22 A2991 RMK A01
KVKS 060155Z AUTO 16007KT 10SM OVC065 22/22 A2991 RMK A01
KVKS 060135Z AUTO 17007KT 10SM BKN065 22/22 A2992 RMK A01
KVKS 060115Z AUTO 16006KT 10SM FEW034 FEW050 22/22 A2991 RMK A01
KVKS 060055Z AUTO 17008KT 10SM FEW032 SCT055 BKN065 22/22 A2991 RMK A01
KVKS 060035Z AUTO 16006KT 10SM FEW036 BKN055 OVC065 22/22 A2991 RMK A01
KVKS 060015Z AUTO 15004KT 10SM FEW033 SCT039 BKN050 22/22 A2991 RMK A01
KVKS 052355Z AUTO 15003KT 10SM OVC050 23/21 A2991 RMK A01
KVKS 052335Z AUTO 16004KT 10SM OVC050 23/21 A2991 RMK A01
KVKS 052315Z AUTO 18005KT 10SM OVC050 23/21 A2991 RMK A01
KVKS 052255Z AUTO 18004KT 10SM BKN050 OVC060 23/21 A2991 RMK A01
KVKS 052235Z AUTO 20005KT 10SM OVC060 23/21 A2991 RMK A01
KVKS 052215Z AUTO 21008KT 10SM BKN060 OVC070 23/21 A2991 RMK A01
KVKS 052155Z AUTO 19010KT 10SM OVC070 23/21 A2990 RMK A01
KVKS 052135Z AUTO 21011KT 10SM SCT024 OVC070 23/21 A2991 RMK A01
KVKS 052115Z AUTO 21007G14KT 10SM BKN024 OVC070 23/21 A2991 RMK A01
KVKS 052055Z AUTO 20006G11KT 10SM SCT023 OVC070 23/21 A2991 RMK A01
KVKS 052035Z AUTO 19008KT 10SM BKN021 OVC070 23/21 A2990 RMK A01
KVKS 052015Z AUTO 21007KT 8SM BKN021 OVC070 22/21 A2991 RMK A01
KVKS 051955Z AUTO 19006KT 7SM OVC020 22/21 A2991 RMK A01
KVKS 051935Z AUTO 19006KT 8SM OVC018 22/21 A2992 RMK A01
KVKS 051915Z AUTO 18006G11KT 8SM OVC017 22/21 A2993 RMK A01
KVKS 051855Z AUTO 18008KT 9SM OVC017 22/21 A2993 RMK A01
KVKS 051835Z AUTO 18008KT 8SM OVC017 21/21 A2994 RMK A01
KVKS 051815Z AUTO 19007G13KT 8SM OVC016 21/21 A2995 RMK A01
KVKS 051755Z AUTO 20009KT 8SM BKN016 OVC060 21/21 A2996 RMK A01
KVKS 051735Z AUTO 19010KT 8SM OVC014 21/21 A2996 RMK A01
KVKS 051715Z AUTO 19010KT 7SM OVC014 21/21 A2998 RMK A01
KVKS 051655Z AUTO 20011KT 8SM OVC013 21/21 A2998 RMK A01
KVKS 051635Z AUTO 19012KT 7SM OVC013 20/20 A2999 RMK A01
KVKS 051615Z AUTO 19009G17KT 8SM OVC013 20/20 A2999 RMK A01
KVKS 051555Z AUTO 19011KT 7SM BKN013 OVC060 20/20 A3000 RMK A01
KVKS 051535Z AUTO 19010G16KT 6SM BR BKN012 OVC065 19/19 A3001 RMK A01
KVKS 051515Z AUTO 19008KT 6SM BR BKN011 OVC065 19/19 A3001 RMK A01
KVKS 051455Z AUTO 19009KT 5SM BR BKN009 OVC013 18/18 A3001 RMK A01
KVKS 051435Z AUTO 19009KT 5SM BR OVC008 18/18 A3001 RMK A01
KVKS 051415Z AUTO 19006KT 5SM BR OVC007 18/18 A3000 RMK A01
KVKS 051355Z AUTO 20006KT 5SM BR OVC006 17/17 A3001 RMK A01
KVKS 051335Z AUTO 19005KT 4SM BR OVC006 17/17 A3001 RMK A01
KVKS 051315Z AUTO 21007KT 4SM BR OVC006 16/16 A3001 RMK A01
KVKS 051255Z AUTO 19004KT 3SM BR OVC005 16/16 A3000 RMK A01
KVKS 051235Z AUTO VRB05KT 3SM BR OVC005 16/16 A2999 RMK A01
KVKS 051215Z AUTO 19005KT 4SM BR OVC005 16/16 A3000 RMK A01
KVKS 051155Z AUTO 18007KT 4SM BR OVC007 16/16 A2999 RMK A01
KVKS 051135Z AUTO 18008KT 5SM BR OVC007 16/16 A2999 RMK A01
KVKS 051115Z AUTO 18005KT 5SM BR OVC008 15/15 A2999 RMK A01
KVKS 051055Z AUTO 13004KT 6SM BR OVC009 14/14 A2999 RMK A01
KVKS 051035Z AUTO 15004KT 6SM BR FEW006 OVC010 14/14 A2999 RMK A01
KVKS 051015Z AUTO 13006KT 6SM BR BKN005 OVC010 13/13 A2999 RMK A01
KVKS 050955Z AUTO 15003KT 6SM BR OVC005 13/13 A3001 RMK A01
KVKS 050935Z AUTO 00000KT 7SM OVC004 12/12 A3002 RMK A01
KVKS 050915Z AUTO 00000KT 7SM OVC004 12/12 A3003 RMK A01
KVKS 050855Z AUTO 00000KT 7SM OVC004 12/12 A3004 RMK A01
KVKS 050835Z AUTO 00000KT 4SM BR OVC004 12/12 A3004 RMK A01
KVKS 050815Z AUTO 00000KT 4SM BR OVC004 12/12 A3005 RMK A01
KVKS 050755Z AUTO 00000KT 6SM BR OVC005 12/12 A3005 RMK A01
KVKS 050735Z AUTO 00000KT 10SM OVC005 12/12 A3005 RMK A01
KVKS 050715Z AUTO 00000KT 10SM OVC007 12/12 A3006 RMK A01
KVKS 050655Z AUTO 00000KT 10SM OVC008 12/12 A3007 RMK A01
KVKS 050635Z AUTO 00000KT 10SM OVC009 12/12 A3007 RMK A01
KVKS 050615Z AUTO 34004KT 10SM OVC010 12/12 A3009 RMK A01
KVKS 050555Z AUTO 32003KT 10SM OVC010 12/12 A3009 RMK A01
KVKS 050535Z AUTO 35004KT 10SM OVC010 12/11 A3010 RMK A01
KVKS 050515Z AUTO 33003KT 10SM OVC008 12/11 A3010 RMK A01
KVKS 050455Z AUTO 00000KT 10SM OVC008 13/11 A3009 RMK A01
KVKS 050435Z AUTO 33003KT 10SM BKN010 OVC060 13/11 A3011 RMK A01
KVKS 050415Z AUTO 00000KT 10SM SCT009 OVC060 13/11 A3010 RMK A01
KVKS 050355Z AUTO 00000KT 10SM BKN008 OVC060 13/10 A3010 RMK A01
KVKS 050335Z AUTO 00000KT 10SM SCT009 SCT012 OVC060 13/10 A3011 RMK A01
KVKS 050315Z AUTO 18004KT 10SM FEW011 OVC060 12/10 A3012 RMK A01
KVKS 050255Z AUTO 00000KT 10SM BKN060 OVC070 12/10 A3013 RMK A01
KVKS 050235Z AUTO 16003KT 10SM FEW017 OVC070 12/11 A3013 RMK A01
KVKS 050215Z AUTO 00000KT 10SM OVC015 12/10 A3014 RMK A01
KVKS 050155Z AUTO 35003KT 10SM OVC015 12/10 A3015 RMK A01
KVKS 050135Z AUTO 30003KT 10SM OVC016 12/11 A3016 RMK A01
KVKS 050115Z AUTO 00000KT 10SM OVC018 12/10 A3017 RMK A01
KVKS 050055Z AUTO 31005KT 10SM OVC019 12/10 A3017 RMK A01
KVKS 050035Z AUTO 32006KT 10SM OVC020 12/10 A3017 RMK A01
KVKS 050015Z AUTO 34005KT 10SM OVC020 13/09 A3017 RMK A01
KVKS 042355Z AUTO 33006KT 10SM OVC020 13/09 A3017 RMK A01
KVKS 042335Z AUTO 35006KT 10SM OVC021 13/09 A3016 RMK A01
KVKS 042315Z AUTO 33007KT 10SM OVC019 14/10 A3016 RMK A01
KVKS 042255Z AUTO 35005KT 10SM OVC017 14/11 A3015 RMK A01
KVKS 042235Z AUTO 36005KT 10SM OVC017 15/10 A3015 RMK A01
KVKS 042215Z AUTO 34004KT 10SM OVC017 15/10 A3015 RMK A01
KVKS 042155Z AUTO 00000KT 10SM OVC017 15/09 A3014 RMK A01
KVKS 042135Z AUTO 31007G13KT 10SM OVC018 15/10 A3015 RMK A01
KVKS 042115Z AUTO 00000KT 10SM BKN018 BKN031 17/11 A3014 RMK A01
KVKS 042055Z AUTO VRB03KT 10SM BKN030 17/11 A3013 RMK A01
KVKS 042035Z AUTO 16003KT 10SM BKN015 OVC030 16/10 A3014 RMK A01
KVKS 042015Z AUTO 00000KT 10SM OVC015 15/09 A3017 RMK A01
KVKS 041955Z AUTO 00000KT 10SM OVC015 15/09 A3018 RMK A01
KVKS 041935Z AUTO 32003KT 10SM OVC015 15/09 A3019 RMK A01
KVKS 041915Z AUTO 00000KT 10SM OVC015 15/09 A3020 RMK A01
KVKS 041855Z AUTO 00000KT 10SM OVC016 14/09 A3022 RMK A01
KVKS 041835Z AUTO 32007KT 10SM OVC017 14/09 A3024 RMK A01
KVKS 041815Z AUTO 33006KT 10SM OVC016 14/09 A3025 RMK A01
KVKS 041755Z AUTO 30005G10KT 10SM OVC016 13/09 A3025 RMK A01
KVKS 041735Z AUTO 29005KT 10SM OVC015 14/09 A3026 RMK A01
KVKS 041715Z AUTO 32004G10KT 10SM BKN015 OVC020 14/09 A3027 RMK A01
KVKS 041535Z AUTO VRB04KT 10SM OVC050 12/09 A3030 RMK A01
KVKS 041515Z AUTO VRB03KT 10SM FEW035 FEW040 OVC050 11/08 A3030 RMK A01
KVKS 041455Z AUTO 06003KT 10SM FEW027 BKN036 OVC050 10/07 A3031 RMK A01
KVKS 041435Z AUTO 36007KT 10SM SCT011 BKN037 OVC049 10/07 A3031 RMK A01
KVKS 041415Z AUTO 00000KT 10SM BKN010 OVC049 10/07 A3031 RMK A01
KVKS 041355Z AUTO 36006KT 10SM OVC011 10/07 A3031 RMK A01
KVKS 041335Z AUTO 34006KT 10SM OVC011 09/07 A3031 RMK A01
KVKS 041315Z AUTO 35005KT 10SM OVC011 09/07 A3030 RMK A01
KVKS 041255Z AUTO 01005KT 10SM OVC011 09/07 A3029 RMK A01
KVKS 041235Z AUTO 36007KT 10SM OVC011 10/07 A3030 RMK A01
KVKS 041215Z AUTO 35006KT 10SM OVC011 10/07 A3029 RMK A01
KVKS 041155Z AUTO 34005KT 10SM OVC011 10/08 A3028 RMK A01
KVKS 041135Z AUTO 35005KT 10SM OVC010 10/07 A3027 RMK A01
KVKS 041115Z AUTO 03004KT 10SM OVC010 10/07 A3027 RMK A01
KVKS 041055Z AUTO 36006KT 10SM OVC010 10/07 A3027 RMK A01
KVKS 041035Z AUTO 36005KT 10SM OVC011 10/07 A3028 RMK A01
KVKS 041015Z AUTO 33005KT 10SM OVC010 10/07 A3028 RMK A01
KVKS 040955Z AUTO VRB03KT 10SM OVC009 10/07 A3027 RMK A01
KVKS 040935Z AUTO 03004KT 10SM OVC009 10/07 A3028 RMK A01